Time;durP1;ratioP1;P1;durP2;ratioP2;P2;SDS_P1;SDS_P2;PMS_P1;PMS_P2;Temp;Humidity;BMP_temperature;BMP_pressure;BME280_temperature;BME280_humidity;BME280_pressure;Samples;Min_cycle;Max_cycle;Signal;HPM_P1;HPM_P2
2022/04/29 00:02:52;;;;;;;;;;;;;;;;;;8439140;27;28215;-73
2022/04/29 00:06:53;;;;;;;;;;;;;;;;;;8435895;27;28420;-72
2022/04/29 00:10:53;;;;;;;;;;;;;;;;;;8451687;27;28107;-72
2022/04/29 00:14:55;;;;;;;;;;;;;;;;;;8449853;27;27830;-72
2022/04/29 00:18:55;;;;;;;;;;;;;;;;;;8454988;27;27407;-72
2022/04/29 00:22:55;;;;;;;;;;;;;;;;;;8452826;27;27799;-72
2022/04/29 00:26:55;;;;;;;;;;;;;;;;;;8449840;27;27512;-72
2022/04/29 00:30:55;;;;;;;;;;;;;;;;;;8453381;27;27831;-72
2022/04/29 00:34:55;;;;;;;;;;;;;;;;;;8447813;27;27502;-72
2022/04/29 00:38:55;;;;;;;;;;;;;;;;;;8452403;27;27706;-72
2022/04/29 00:42:55;;;;;;;;;;;;;;;;;;8435197;27;28466;-72
2022/04/29 00:46:56;;;;;;;;;;;;;;;;;;8448414;27;27739;-72
2022/04/29 00:50:56;;;;;;;;;;;;;;;;;;8432802;27;28078;-72
2022/04/29 00:54:56;;;;;;;;;;;;;;;;;;8449395;27;27212;-72
2022/04/29 00:58:56;;;;;;;;;;;;;;;;;;8452358;27;27349;-72
2022/04/29 01:02:56;;;;;;;;;;;;;;;;;;8430644;27;28197;-72
2022/04/29 01:06:56;;;;;;;;;;;;;;;;;;8448487;27;27467;-73
2022/04/29 01:10:56;;;;;;;;;;;;;;;;;;8448421;27;28293;-72
2022/04/29 01:14:56;;;;;;;;;;;;;;;;;;8432875;27;28422;-72
2022/04/29 01:18:57;;;;;;;;;;;;;;;;;;8448036;27;28033;-72
2022/04/29 01:22:57;;;;;;;;;;;;;;;;;;8451263;27;28299;-72
2022/04/29 01:26:57;;;;;;;;;;;;;;;;;;8449989;27;27395;-73
2022/04/29 01:30:57;;;;;;;;;;;;;;;;;;8452111;27;27941;-72
2022/04/29 01:34:57;;;;;;;;;;;;;;;;;;8443234;27;27354;-72
2022/04/29 01:38:57;;;;;;;;;;;;;;;;;;8451547;27;27591;-72
2022/04/29 01:42:57;;;;;;;;;;;;;;;;;;8451022;27;27493;-73
2022/04/29 01:46:58;;;;;;;;;;;;;;;;;;8449071;27;27916;-73
2022/04/29 01:50:58;;;;;;;;;;;;;;;;;;8448142;27;27975;-72
2022/04/29 01:54:58;;;;;;;;;;;;;;;;;;8444553;27;27971;-72
2022/04/29 01:58:58;;;;;;;;;;;;;;;;;;8451333;27;27628;-73
2022/04/29 02:02:58;;;;;;;;;;;;;;;;;;8446295;27;27102;-72
2022/04/29 02:06:58;;;;;;;;;;;;;;;;;;8448262;27;27512;-72
2022/04/29 02:10:58;;;;;;;;;;;;;;;;;;8432591;27;28714;-72
2022/04/29 02:14:58;;;;;;;;;;;;;;;;;;8445131;27;28323;-72
2022/04/29 02:18:59;;;;;;;;;;;;;;;;;;8450407;27;28097;-72
2022/04/29 02:22:59;;;;;;;;;;;;;;;;;;8429233;27;28277;-72
2022/04/29 02:26:59;;;;;;;;;;;;;;;;;;8449241;27;27726;-72
2022/04/29 02:31:00;;;;;;;;;;;;;;;;;;8447434;27;27333;-73
2022/04/29 02:35:00;;;;;;;;;;;;;;;;;;8448633;27;27846;-72
2022/04/29 02:39:02;;;;;;;;;;;;;;;;;;8433404;27;28496;-72
2022/04/29 02:43:02;;;;;;;;;;;;;;;;;;8450117;27;28101;-72
2022/04/29 02:47:08;;;;;;;;;;;;;;;;;;8446340;27;27441;-72
2022/04/29 02:51:08;;;;;;;;;;;;;;;;;;8450171;27;27535;-72
2022/04/29 02:55:08;;;;;;;;;;;;;;;;;;8445718;27;28234;-72
2022/04/29 02:59:10;;;;;;;;;;;;;;;;;;8454417;27;27273;-72
2022/04/29 03:03:10;;;;;;;;;;;;;;;;;;8432131;27;28386;-72
2022/04/29 03:07:11;;;;;;;;;;;;;;;;;;8453037;27;27644;-72
2022/04/29 03:11:11;;;;;;;;;;;;;;;;;;8451874;27;27685;-72
2022/04/29 03:15:17;;;;;;;;;;;;;;;;;;8450142;27;27430;-72
2022/04/29 03:19:17;;;;;;;;;;;;;;;;;;8452727;27;27565;-72
2022/04/29 03:23:17;;;;;;;;;;;;;;;;;;8449750;27;27686;-72
2022/04/29 03:27:17;;;;;;;;;;;;;;;;;;8449137;27;27384;-72
2022/04/29 03:31:17;;;;;;;;;;;;;;;;;;8452126;27;27444;-72
2022/04/29 03:35:17;;;;;;;;;;;;;;;;;;8448938;27;27953;-72
2022/04/29 03:39:18;;;;;;;;;;;;;;;;;;8455843;27;27400;-72
2022/04/29 03:43:18;;;;;;;;;;;;;;;;;;8452285;27;27692;-72
2022/04/29 03:47:18;;;;;;;;;;;;;;;;;;8448225;27;28729;-72
2022/04/29 03:51:18;;;;;;;;;;;;;;;;;;8454192;27;27099;-72
2022/04/29 03:55:18;;;;;;;;;;;;;;;;;;8436818;27;28332;-72
2022/04/29 03:59:18;;;;;;;;;;;;;;;;;;8453531;27;27390;-72
2022/04/29 04:03:19;;;;;;;;;;;;;;;;;;8450660;27;28066;-72
2022/04/29 04:07:19;;;;;;;;;;;;;;;;;;8448904;27;28039;-72
2022/04/29 04:11:19;;;;;;;;;;;;;;;;;;8451973;27;27798;-72
2022/04/29 04:15:19;;;;;;;;;;;;;;;;;;8447616;27;27974;-72
2022/04/29 04:19:19;;;;;;;;;;;;;;;;;;8451656;27;27494;-71
2022/04/29 04:23:19;;;;;;;;;;;;;;;;;;8452335;27;27506;-72
2022/04/29 04:27:20;;;;;;;;;;;;;;;;;;8446453;27;27986;-73
2022/04/29 04:31:24;;;;;;;;;;;;;;;;;;8430533;27;28262;-72
2022/04/29 04:35:24;;;;;;;;;;;;;;;;;;8428332;27;29235;-71
2022/04/29 04:39:24;;;;;;;;;;;;;;;;;;8451420;27;27416;-71
2022/04/29 04:43:24;;;;;;;;;;;;;;;;;;8451708;27;27434;-71
2022/04/29 04:47:24;;;;;;;;;;;;;;;;;;8447997;27;27324;-72
2022/04/29 04:51:24;;;;;;;;;;;;;;;;;;8453572;27;27565;-72
2022/04/29 04:55:25;;;;;;;;;;;;;;;;;;8446328;27;27914;-72
2022/04/29 04:59:25;;;;;;;;;;;;;;;;;;8450711;27;27480;-72
2022/04/29 05:03:25;;;;;;;;;;;;;;;;;;8448134;27;27791;-72
2022/04/29 05:07:25;;;;;;;;;;;;;;;;;;8445124;27;28034;-72
2022/04/29 05:11:25;;;;;;;;;;;;;;;;;;8449423;27;27544;-72
2022/04/29 05:15:25;;;;;;;;;;;;;;;;;;8443555;27;27838;-72
2022/04/29 05:19:25;;;;;;;;;;;;;;;;;;8431054;27;32922;-73
2022/04/29 05:23:25;;;;;;;;;;;;;;;;;;8452447;27;27527;-72
2022/04/29 05:27:25;;;;;;;;;;;;;;;;;;8446406;27;27567;-72
2022/04/29 05:31:26;;;;;;;;;;;;;;;;;;8449369;27;27668;-72
2022/04/29 05:35:26;;;;;;;;;;;;;;;;;;8429638;27;29658;-72
2022/04/29 05:43:44;;;;;;;;;;;;;;;;;;8448391;27;27523;-72
2022/04/29 05:47:45;;;;;;;;;;;;;;;;;;8429659;27;28273;-72
2022/04/29 05:51:45;;;;;;;;;;;;;;;;;;8436718;27;28483;-72
2022/04/29 05:55:45;;;;;;;;;;;;;;;;;;8448578;27;27741;-72
2022/04/29 05:59:45;;;;;;;;;;;;;;;;;;8434526;27;28368;-72
2022/04/29 06:03:45;;;;;;;;;;;;;;;;;;8446455;27;27754;-72
2022/04/29 06:07:45;;;;;;;;;;;;;;;;;;8449156;27;27355;-72
2022/04/29 06:11:46;;;;;;;;;;;;;;;;;;8432972;27;28267;-72
2022/04/29 06:15:46;;;;;;;;;;;;;;;;;;8446722;27;27944;-72
2022/04/29 06:19:46;;;;;;;;;;;;;;;;;;8448527;27;27471;-72
2022/04/29 06:23:46;;;;;;;;;;;;;;;;;;8432815;27;28391;-72
2022/04/29 06:27:46;;;;;;;;;;;;;;;;;;8447348;27;27506;-72
2022/04/29 06:31:47;;;;;;;;;;;;;;;;;;8452078;27;28173;-72
2022/04/29 06:35:50;;;;;;;;;;;;;;;;;;8453724;27;27293;-71
2022/04/29 06:39:50;;;;;;;;;;;;;;;;;;8456166;27;28333;-72
2022/04/29 06:43:50;;;;;;;;;;;;;;;;;;8450651;27;27342;-72
2022/04/29 06:47:50;;;;;;;;;;;;;;;;;;8456400;27;27734;-72
2022/04/29 06:51:50;;;;;;;;;;;;;;;;;;8456051;27;27456;-72
2022/04/29 06:55:50;;;;;;;;;;;;;;;;;;8450618;27;27893;-71
2022/04/29 06:59:51;;;;;;;;;;;;;;;;;;8456085;27;27241;-72
2022/04/29 07:03:51;;;;;;;;;;;;;;;;;;8449657;27;27644;-72
2022/04/29 07:07:51;;;;;;;;;;;;;;;;;;8454317;27;28518;-72
2022/04/29 07:11:51;;;;;;;;;;;;;;;;;;8435436;27;28158;-71
2022/04/29 07:15:51;;;;;;;;;;;;;;;;;;8437554;27;28588;-71
2022/04/29 07:19:52;;;;;;;;;;;;;;;;;;8453095;27;27866;-72
2022/04/29 07:23:52;;;;;;;;;;;;;;;;;;8448502;27;27575;-72
2022/04/29 07:27:53;;;;;;;;;;;;;;;;;;8451784;27;27442;-72
2022/04/29 07:31:53;;;;;;;;;;;;;;;;;;8437667;27;28359;-72
2022/04/29 07:44:33;;;;;;;;;;;;;;;;;;8429043;27;27470;-72
2022/04/29 07:48:33;;;;;;;;;;;;;;;;;;8429831;27;28562;-72
2022/04/29 07:52:34;;;;;;;;;;;;;;;;;;8448913;27;28090;-72
2022/04/29 07:56:34;;;;;;;;;;;;;;;;;;8446764;27;27919;-72
2022/04/29 08:00:34;;;;;;;;;;;;;;;;;;8451287;27;27956;-72
2022/04/29 08:04:35;;;;;;;;;;;;;;;;;;8433154;27;29272;-72
2022/04/29 08:08:37;;;;;;;;;;;;;;;;;;8451765;27;27372;-72
2022/04/29 08:12:37;;;;;;;;;;;;;;;;;;8452375;27;27607;-72
2022/04/29 08:16:37;;;;;;;;;;;;;;;;;;8447979;27;27533;-72
2022/04/29 08:20:38;;;;;;;;;;;;;;;;;;8451324;27;27670;-72
2022/04/29 08:24:38;;;;;;;;;;;;;;;;;;8449001;27;27575;-72
2022/04/29 08:28:38;;;;;;;;;;;;;;;;;;8433202;27;28763;-72
2022/04/29 08:32:38;;;;;;;;;;;;;;;;;;8449239;27;27463;-72
2022/04/29 08:36:38;;;;;;;;;;;;;;;;;;8449732;27;27436;-72
2022/04/29 08:40:38;;;;;;;;;;;;;;;;;;8449055;27;27611;-72
2022/04/29 08:44:39;;;;;;;;;;;;;;;;;;8436933;27;28929;-72
2022/04/29 08:48:41;;;;;;;;;;;;;;;;;;8450346;27;28292;-72
2022/04/29 08:52:41;;;;;;;;;;;;;;;;;;8449021;27;27426;-72
2022/04/29 09:01:01;;;;;;;;;;;;;;;;;;8446183;27;27375;-72
2022/04/29 09:05:02;;;;;;;;;;;;;;;;;;8427488;27;28384;-72
2022/04/29 09:09:02;;;;;;;;;;;;;;;;;;8425939;27;28696;-72
2022/04/29 09:13:02;;;;;;;;;;;;;;;;;;8451939;27;28088;-72
2022/04/29 09:17:02;;;;;;;;;;;;;;;;;;8444300;27;27444;-72
2022/04/29 09:21:02;;;;;;;;;;;;;;;;;;8443715;27;27869;-72
2022/04/29 09:25:03;;;;;;;;;;;;;;;;;;8433327;27;27742;-73
2022/04/29 09:29:03;;;;;;;;;;;;;;;;;;8427376;27;28767;-73
2022/04/29 09:33:03;;;;;;;;;;;;;;;;;;8451446;27;28391;-73
2022/04/29 09:37:03;;;;;;;;;;;;;;;;;;8445891;27;27430;-72
2022/04/29 09:41:03;;;;;;;;;;;;;;;;;;8448994;27;27566;-73
2022/04/29 09:45:03;;;;;;;;;;;;;;;;;;8442014;27;27317;-73
2022/04/29 09:49:09;;;;;;;;;;;;;;;;;;8448178;27;48894;-73
2022/04/29 09:53:09;;;;;;;;;;;;;;;;;;8446317;27;28627;-73
2022/04/29 09:57:09;;;;;;;;;;;;;;;;;;8447928;27;27435;-72
2022/04/29 10:01:09;;;;;;;;;;;;;;;;;;8448679;27;27547;-73
2022/04/29 10:05:10;;;;;;;;;;;;;;;;;;8445949;27;28006;-73
2022/04/29 10:09:10;;;;;;;;;;;;;;;;;;8446652;27;28193;-73
2022/04/29 10:13:10;;;;;;;;;;;;;;;;;;8447594;27;27896;-72
2022/04/29 10:21:33;;;;;;;;;;;;;;;;;;8439333;27;27609;-73
2022/04/29 10:25:33;;;;;;;;;;;;;;;;;;8426641;27;28345;-73
2022/04/29 10:29:33;;;;;;;;;;;;;;;;;;8447958;27;27468;-73
2022/04/29 10:33:35;;;;;;;;;;;;;;;;;;8449100;27;29014;-73
2022/04/29 10:37:37;;;;;;;;;;;;;;;;;;8442842;27;27369;-73
2022/04/29 10:41:37;;;;;;;;;;;;;;;;;;8431633;27;28563;-73
2022/04/29 10:45:37;;;;;;;;;;;;;;;;;;8422726;27;28207;-73
2022/04/29 10:49:37;;;;;;;;;;;;;;;;;;8441641;27;28369;-73
2022/04/29 10:53:41;;;;;;;;;;;;;;;;;;8430143;27;28461;-73
2022/04/29 10:57:41;;;;;;;;;;;;;;;;;;8444796;27;27649;-72
2022/04/29 11:01:41;;;;;;;;;;;;;;;;;;8440504;27;27584;-73
2022/04/29 11:05:42;;;;;;;;;;;;;;;;;;8426809;27;28579;-73
2022/04/29 11:09:42;;;;;;;;;;;;;;;;;;8447873;27;27394;-73
2022/04/29 11:13:47;;;;;;;;;;;;;;;;;;8445920;27;27451;-73
2022/04/29 11:17:47;;;;;;;;;;;;;;;;;;8429301;27;28303;-73
2022/04/29 11:26:06;;;;;;;;;;;;;;;;;;8445765;27;27401;-73
2022/04/29 11:30:07;;;;;;;;;;;;;;;;;;8443579;27;27587;-73
2022/04/29 11:34:07;;;;;;;;;;;;;;;;;;8440871;27;27684;-73
2022/04/29 11:38:07;;;;;;;;;;;;;;;;;;8433596;27;28223;-72
2022/04/29 11:42:08;;;;;;;;;;;;;;;;;;8430164;27;28437;-73
2022/04/29 11:46:09;;;;;;;;;;;;;;;;;;8448746;27;27767;-73
2022/04/29 11:50:09;;;;;;;;;;;;;;;;;;8454215;27;27296;-72
2022/04/29 11:54:09;;;;;;;;;;;;;;;;;;8448993;27;27538;-72
2022/04/29 11:58:10;;;;;;;;;;;;;;;;;;8451448;27;28165;-73
2022/04/29 12:02:10;;;;;;;;;;;;;;;;;;8449281;27;27889;-73
2022/04/29 12:06:10;;;;;;;;;;;;;;;;;;8427791;27;28679;-73
2022/04/29 12:10:10;;;;;;;;;;;;;;;;;;8452296;27;27825;-72
2022/04/29 12:14:10;;;;;;;;;;;;;;;;;;8446170;27;27409;-73
2022/04/29 12:18:10;;;;;;;;;;;;;;;;;;8435256;27;28198;-73
2022/04/29 12:22:11;;;;;;;;;;;;;;;;;;8453845;27;27080;-72
2022/04/29 12:26:11;;;;;;;;;;;;;;;;;;8447067;27;28053;-72
2022/04/29 12:34:49;;;;;;;;;;;;;;;;;;8477299;27;27932;-73
2022/04/29 12:38:49;;;;;;;;;;;;;;;;;;8480343;27;29166;-73
2022/04/29 12:42:49;;;;;;;;;;;;;;;;;;8459292;27;28914;-73
2022/04/29 12:46:50;;;;;;;;;;;;;;;;;;8478651;27;27346;-73
2022/04/29 12:50:50;;;;;;;;;;;;;;;;;;8461515;27;29459;-73
2022/04/29 12:54:50;;;;;;;;;;;;;;;;;;8478113;27;27498;-73
2022/04/29 12:58:50;;;;;;;;;;;;;;;;;;8459634;27;29759;-72
2022/04/29 13:02:50;;;;;;;;;;;;;;;;;;8458145;27;28712;-72
2022/04/29 13:06:50;;;;;;;;;;;;;;;;;;8456842;27;28643;-73
2022/04/29 13:10:50;;;;;;;;;;;;;;;;;;8482315;27;27712;-72
2022/04/29 13:14:51;;;;;;;;;;;;;;;;;;8453643;27;28296;-72
2022/04/29 13:18:51;;;;;;;;;;;;;;;;;;8478461;22;27364;-72
2022/04/29 13:22:51;;;;;;;;;;;;;;;;;;8421233;27;27755;-72
2022/04/29 13:26:51;;;;;;;;;;;;;;;;;;8415813;27;27449;-72
2022/04/29 13:30:51;;;;;;;;;;;;;;;;;;8410734;27;27885;-72
2022/04/29 13:34:52;;;;;;;;;;;;;;;;;;8400949;27;27533;-73
2022/04/29 13:38:52;;;;;;;;;;;;;;;;;;8415437;27;47094;-73
2022/04/29 13:42:52;;;;;;;;;;;;;;;;;;8418129;27;27527;-73
2022/04/29 13:46:52;;;;;;;;;;;;;;;;;;8411377;27;27824;-73
2022/04/29 13:50:53;;;;;;;;;;;;;;;;;;8417930;27;27477;-74
2022/04/29 13:54:53;;;;;;;;;;;;;;;;;;8413335;27;27326;-72
2022/04/29 13:58:53;;;;;;;;;;;;;;;;;;8415040;27;28688;-73
2022/04/29 14:02:53;;;;;;;;;;;;;;;;;;8416805;27;27526;-73
2022/04/29 14:06:53;;;;;;;;;;;;;;;;;;8418851;27;28179;-73
2022/04/29 14:10:54;;;;;;;;;;;;;;;;;;8414891;27;28398;-73
2022/04/29 14:14:54;;;;;;;;;;;;;;;;;;8415978;27;27719;-73
2022/04/29 14:18:54;;;;;;;;;;;;;;;;;;8413186;27;27413;-73
2022/04/29 14:22:54;;;;;;;;;;;;;;;;;;8414819;27;28136;-72
2022/04/29 14:26:55;;;;;;;;;;;;;;;;;;8411698;27;27463;-73
2022/04/29 14:30:55;;;;;;;;;;;;;;;;;;8416369;27;27476;-72
2022/04/29 14:34:55;;;;;;;;;;;;;;;;;;8410101;27;28132;-72
2022/04/29 14:38:55;;;;;;;;;;;;;;;;;;8410266;27;27813;-72
2022/04/29 14:42:55;;;;;;;;;;;;;;;;;;8409249;27;27500;-73
2022/04/29 14:46:55;;;;;;;;;;;;;;;;;;8412954;27;27459;-73
2022/04/29 14:50:55;;;;;;;;;;;;;;;;;;8414955;27;27471;-73
2022/04/29 14:54:55;;;;;;;;;;;;;;;;;;8416041;27;28473;-73
2022/04/29 14:58:56;;;;;;;;;;;;;;;;;;8414866;27;27325;-72
2022/04/29 15:02:56;;;;;;;;;;;;;;;;;;8416041;27;27449;-72
2022/04/29 15:06:56;;;;;;;;;;;;;;;;;;8416211;27;28500;-72
2022/04/29 15:19:34;;;;;;;;;;;;;;;;;;8415409;27;27315;-72
2022/04/29 15:23:34;;;;;;;;;;;;;;;;;;8420443;27;27466;-72
2022/04/29 15:27:34;;;;;;;;;;;;;;;;;;8417456;27;27322;-72
2022/04/29 15:31:34;;;;;;;;;;;;;;;;;;8418246;27;27465;-73
2022/04/29 15:35:34;;;;;;;;;;;;;;;;;;8405052;27;28434;-73
2022/04/29 15:39:34;;;;;;;;;;;;;;;;;;8416339;27;28027;-72
2022/04/29 15:43:34;;;;;;;;;;;;;;;;;;8418426;27;28687;-72
2022/04/29 15:47:35;;;;;;;;;;;;;;;;;;8415866;27;27783;-72
2022/04/29 15:51:35;;;;;;;;;;;;;;;;;;8418568;27;27845;-72
2022/04/29 15:55:35;;;;;;;;;;;;;;;;;;8411896;27;29898;-72
2022/04/29 15:59:35;;;;;;;;;;;;;;;;;;8415247;27;28253;-72
2022/04/29 16:03:35;;;;;;;;;;;;;;;;;;8415029;27;27960;-72
2022/04/29 16:07:35;;;;;;;;;;;;;;;;;;8412058;27;29141;-72
2022/04/29 16:11:35;;;;;;;;;;;;;;;;;;8410577;27;27622;-72
2022/04/29 16:15:36;;;;;;;;;;;;;;;;;;8413983;27;27968;-72
2022/04/29 16:28:13;;;;;;;;;;;;;;;;;;8420286;27;28347;-72
2022/04/29 16:32:14;;;;;;;;;;;;;;;;;;8414812;27;27966;-72
2022/04/29 16:36:14;;;;;;;;;;;;;;;;;;8416896;27;28560;-72
2022/04/29 16:40:14;;;;;;;;;;;;;;;;;;8410752;27;27402;-72
2022/04/29 16:44:15;;;;;;;;;;;;;;;;;;8414630;27;27461;-72
2022/04/29 16:48:15;;;;;;;;;;;;;;;;;;8418509;27;27973;-72
2022/04/29 16:52:15;;;;;;;;;;;;;;;;;;8418269;27;27453;-73
2022/04/29 16:56:16;;;;;;;;;;;;;;;;;;8417657;27;27884;-73
2022/04/29 17:00:16;;;;;;;;;;;;;;;;;;8417733;27;28473;-72
2022/04/29 17:04:16;;;;;;;;;;;;;;;;;;8411250;27;27949;-73
2022/04/29 17:08:19;;;;;;;;;;;;;;;;;;8416655;27;27527;-72
2022/04/29 17:12:19;;;;;;;;;;;;;;;;;;8416366;27;28598;-72
2022/04/29 17:16:20;;;;;;;;;;;;;;;;;;8413416;27;27581;-72
2022/04/29 17:20:20;;;;;;;;;;;;;;;;;;8413387;27;27429;-73
2022/04/29 17:24:21;;;;;;;;;;;;;;;;;;8411273;27;27451;-72
2022/04/29 17:28:21;;;;;;;;;;;;;;;;;;8416426;27;28153;-72
2022/04/29 17:32:21;;;;;;;;;;;;;;;;;;8411643;27;27157;-72
2022/04/29 17:36:21;;;;;;;;;;;;;;;;;;8413879;27;27392;-72
2022/04/29 17:44:40;;;;;;;;;;;;;;;;;;8413284;27;27716;-72
2022/04/29 17:48:40;;;;;;;;;;;;;;;;;;8408684;27;27372;-72
2022/04/29 17:52:40;;;;;;;;;;;;;;;;;;8411780;27;28487;-72
2022/04/29 17:56:41;;;;;;;;;;;;;;;;;;8412343;27;28465;-72
2022/04/29 18:00:43;;;;;;;;;;;;;;;;;;8411504;27;29480;-74
2022/04/29 18:04:44;;;;;;;;;;;;;;;;;;8413638;27;27478;-72
2022/04/29 18:08:44;;;;;;;;;;;;;;;;;;8414407;27;28130;-72
2022/04/29 18:12:47;;;;;;;;;;;;;;;;;;8415794;27;28169;-72
2022/04/29 18:16:47;;;;;;;;;;;;;;;;;;8415696;27;27429;-72
2022/04/29 18:20:47;;;;;;;;;;;;;;;;;;8419998;27;27931;-72
2022/04/29 18:24:48;;;;;;;;;;;;;;;;;;8412871;27;28004;-72
2022/04/29 18:28:48;;;;;;;;;;;;;;;;;;8416929;27;27801;-72
2022/04/29 18:32:48;;;;;;;;;;;;;;;;;;8417824;27;29426;-72
2022/04/29 18:36:48;;;;;;;;;;;;;;;;;;8416144;27;27109;-72
2022/04/29 18:40:48;;;;;;;;;;;;;;;;;;8416553;27;27949;-72
2022/04/29 18:44:48;;;;;;;;;;;;;;;;;;8416651;27;27327;-72
2022/04/29 18:48:48;;;;;;;;;;;;;;;;;;8416079;27;29703;-72
2022/04/29 18:52:49;;;;;;;;;;;;;;;;;;8412964;27;28776;-72
2022/04/29 18:56:49;;;;;;;;;;;;;;;;;;8411766;27;27413;-72
2022/04/29 19:00:49;;;;;;;;;;;;;;;;;;8420216;27;27203;-72
2022/04/29 19:04:49;;;;;;;;;;;;;;;;;;8408277;27;28200;-72
2022/04/29 19:08:49;;;;;;;;;;;;;;;;;;8416560;27;29750;-72
2022/04/29 19:12:49;;;;;;;;;;;;;;;;;;8414116;27;28513;-72
2022/04/29 19:16:50;;;;;;;;;;;;;;;;;;8406153;27;27887;-72
2022/04/29 19:20:50;;;;;;;;;;;;;;;;;;8408580;27;28460;-72
2022/04/29 19:24:50;;;;;;;;;;;;;;;;;;8412660;27;27487;-72
2022/04/29 19:28:50;;;;;;;;;;;;;;;;;;8406543;27;28000;-72
2022/04/29 19:32:50;;;;;;;;;;;;;;;;;;8408260;27;27459;-72
2022/04/29 19:36:51;;;;;;;;;;;;;;;;;;8412285;27;28036;-72
2022/04/29 19:40:51;;;;;;;;;;;;;;;;;;8423690;27;28423;-72
2022/04/29 19:44:51;;;;;;;;;;;;;;;;;;8422154;27;27811;-72
2022/04/29 19:48:53;;;;;;;;;;;;;;;;;;8423797;27;28453;-72
2022/04/29 19:52:53;;;;;;;;;;;;;;;;;;8420983;27;28726;-72
2022/04/29 20:05:31;;;;;;;;;;;;;;;;;;8415518;27;27324;-72
2022/04/29 20:09:31;;;;;;;;;;;;;;;;;;8421599;27;27563;-72
2022/04/29 20:13:31;;;;;;;;;;;;;;;;;;8420665;27;28103;-72
2022/04/29 20:17:31;;;;;;;;;;;;;;;;;;8422682;27;29283;-72
2022/04/29 20:21:31;;;;;;;;;;;;;;;;;;8421317;27;28359;-72
2022/04/29 20:25:32;;;;;;;;;;;;;;;;;;8418071;27;27610;-71
2022/04/29 20:29:32;;;;;;;;;;;;;;;;;;8421388;27;28314;-72
2022/04/29 20:33:32;;;;;;;;;;;;;;;;;;8420496;27;27188;-72
2022/04/29 20:37:32;;;;;;;;;;;;;;;;;;8424039;27;27441;-72
2022/04/29 20:45:51;;;;;;;;;;;;;;;;;;8418696;27;27188;-72
2022/04/29 20:49:51;;;;;;;;;;;;;;;;;;8421263;27;28016;-72
2022/04/29 20:53:51;;;;;;;;;;;;;;;;;;8422222;27;27485;-72
2022/04/29 20:57:52;;;;;;;;;;;;;;;;;;8422096;27;27716;-71
2022/04/29 21:01:53;;;;;;;;;;;;;;;;;;8417229;27;28783;-72
2022/04/29 21:05:55;;;;;;;;;;;;;;;;;;8417984;27;27412;-72
2022/04/29 21:09:55;;;;;;;;;;;;;;;;;;8419799;27;27526;-72
2022/04/29 21:13:55;;;;;;;;;;;;;;;;;;8417297;27;28304;-72
2022/04/29 21:17:55;;;;;;;;;;;;;;;;;;8418357;27;28569;-72
2022/04/29 21:21:55;;;;;;;;;;;;;;;;;;8420865;27;27428;-72
2022/04/29 21:25:55;;;;;;;;;;;;;;;;;;8420237;27;27883;-72
2022/04/29 21:34:14;;;;;;;;;;;;;;;;;;8413057;27;27464;-72
2022/04/29 21:38:15;;;;;;;;;;;;;;;;;;8415276;27;28132;-72
2022/04/29 21:42:15;;;;;;;;;;;;;;;;;;8416471;27;27772;-72
2022/04/29 21:46:15;;;;;;;;;;;;;;;;;;8420055;27;27176;-72
2022/04/29 21:50:17;;;;;;;;;;;;;;;;;;8417713;27;27398;-72
2022/04/29 21:54:17;;;;;;;;;;;;;;;;;;8418067;27;27550;-72
2022/04/29 21:58:17;;;;;;;;;;;;;;;;;;8419179;27;28619;-72
2022/04/29 22:02:17;;;;;;;;;;;;;;;;;;8418499;27;27464;-71
2022/04/29 22:06:17;;;;;;;;;;;;;;;;;;8416232;27;27734;-72
2022/04/29 22:10:17;;;;;;;;;;;;;;;;;;8418256;27;28106;-72
2022/04/29 22:14:17;;;;;;;;;;;;;;;;;;8416996;27;29650;-72
2022/04/29 22:18:19;;;;;;;;;;;;;;;;;;8406258;27;28760;-72
2022/04/29 22:22:24;;;;;;;;;;;;;;;;;;8395948;27;27548;-72
2022/04/29 22:26:27;;;;;;;;;;;;;;;;;;8412035;27;27550;-72
2022/04/29 22:30:28;;;;;;;;;;;;;;;;;;8421355;27;27133;-72
2022/04/29 22:34:28;;;;;;;;;;;;;;;;;;8415703;27;28489;-72
2022/04/29 22:38:28;;;;;;;;;;;;;;;;;;8419844;27;28927;-72
2022/04/29 22:42:28;;;;;;;;;;;;;;;;;;8413878;27;27683;-72
2022/04/29 22:46:31;;;;;;;;;;;;;;;;;;8406678;27;27612;-72
2022/04/29 22:50:31;;;;;;;;;;;;;;;;;;8415571;27;27155;-72
2022/04/29 22:54:31;;;;;;;;;;;;;;;;;;8416526;27;27573;-72
2022/04/29 22:58:31;;;;;;;;;;;;;;;;;;8411895;27;28443;-72
2022/04/29 23:02:32;;;;;;;;;;;;;;;;;;8410752;27;28008;-72
2022/04/29 23:06:32;;;;;;;;;;;;;;;;;;8415985;27;28238;-72
2022/04/29 23:10:32;;;;;;;;;;;;;;;;;;8413840;27;27251;-71
2022/04/29 23:14:32;;;;;;;;;;;;;;;;;;8419240;27;27476;-72
2022/04/29 23:22:51;;;;;;;;;;;;;;;;;;8421067;27;27673;-72
2022/04/29 23:26:51;;;;;;;;;;;;;;;;;;8424344;27;27463;-72
2022/04/29 23:30:51;;;;;;;;;;;;;;;;;;8420103;27;28669;-72
2022/04/29 23:34:52;;;;;;;;;;;;;;;;;;8422039;27;28145;-72
2022/04/29 23:38:52;;;;;;;;;;;;;;;;;;8424222;27;27625;-72
2022/04/29 23:42:53;;;;;;;;;;;;;;;;;;8423695;27;27687;-72
2022/04/29 23:46:53;;;;;;;;;;;;;;;;;;8422737;27;27837;-72
2022/04/29 23:50:53;;;;;;;;;;;;;;;;;;8421271;27;28326;-72
2022/04/29 23:54:53;;;;;;;;;;;;;;;;;;8419344;27;28256;-72
2022/04/29 23:58:54;;;;;;;;;;;;;;;;;;8420093;27;28357;-72
